createdAt,value
2022-08-12T00:00:49.558Z,18.20
2022-08-12T00:03:35.330Z,18.20
2022-08-12T00:06:21.538Z,18.10
2022-08-12T00:09:07.083Z,18.10
2022-08-12T00:11:54.186Z,18.10
2022-08-12T00:14:40.194Z,18.00
2022-08-12T00:17:25.888Z,18.00
2022-08-12T00:20:11.301Z,17.90
2022-08-12T00:22:59.832Z,17.80
2022-08-12T00:26:20.957Z,17.70
2022-08-12T00:29:01.614Z,17.70
2022-08-12T00:31:47.282Z,17.60
2022-08-12T00:34:33.031Z,17.60
2022-08-12T00:37:18.660Z,17.60
2022-08-12T00:40:04.727Z,17.60
2022-08-12T00:42:39.245Z,17.50
2022-08-12T00:45:09.446Z,17.40
2022-08-12T00:47:37.599Z,17.40
2022-08-12T00:50:06.937Z,17.30
2022-08-12T00:52:35.328Z,17.30
2022-08-12T00:55:03.801Z,17.30
2022-08-12T00:57:35.857Z,17.20
2022-08-12T01:00:10.934Z,17.20
2022-08-12T01:02:40.664Z,17.10
2022-08-12T01:05:27.720Z,17.10
2022-08-12T01:08:13.495Z,17.10
2022-08-12T01:10:59.904Z,17.00
2022-08-12T01:13:28.691Z,16.90
2022-08-12T01:15:58.734Z,16.90
2022-08-12T01:18:28.215Z,16.80
2022-08-12T01:21:04.720Z,16.80
2022-08-12T01:23:50.276Z,16.70
2022-08-12T01:26:21.016Z,16.70
2022-08-12T01:28:50.411Z,16.70
2022-08-12T01:31:19.346Z,16.70
2022-08-12T01:33:52.478Z,16.70
2022-08-12T01:36:20.679Z,16.60
2022-08-12T01:38:49.195Z,16.60
2022-08-12T01:45:06.700Z,16.50
2022-08-12T01:47:43.041Z,16.40
2022-08-12T01:50:18.539Z,16.40
2022-08-12T01:52:53.787Z,16.30
2022-08-12T01:55:22.919Z,16.30
2022-08-12T01:57:58.590Z,16.30
2022-08-12T02:00:43.300Z,16.20
2022-08-12T02:03:19.177Z,16.20
2022-08-12T02:06:08.351Z,16.10
2022-08-12T02:08:57.367Z,16.10
2022-08-12T02:11:29.193Z,16.00
2022-08-12T02:14:07.623Z,16.00
2022-08-12T02:16:51.806Z,15.90
2022-08-12T02:19:30.911Z,15.90
2022-08-12T02:22:05.234Z,15.90
2022-08-12T02:24:33.994Z,15.90
2022-08-12T02:27:02.952Z,15.80
2022-08-12T02:29:30.971Z,15.80
2022-08-12T02:32:00.384Z,15.80
2022-08-12T02:34:28.791Z,15.70
2022-08-12T02:36:57.447Z,15.70
2022-08-12T02:39:28.569Z,15.70
2022-08-12T02:41:56.882Z,15.70
2022-08-12T02:44:24.986Z,15.60
2022-08-12T02:46:55.181Z,15.60
2022-08-12T02:49:31.474Z,15.60
2022-08-12T02:51:59.905Z,15.60
2022-08-12T02:54:27.963Z,15.50
2022-08-12T02:56:56.071Z,15.50
2022-08-12T02:59:26.263Z,15.50
2022-08-12T03:01:55.087Z,15.40
2022-08-12T03:04:31.428Z,15.40
2022-08-12T03:07:03.896Z,15.40
2022-08-12T03:09:52.412Z,15.40
2022-08-12T03:12:22.826Z,15.30
2022-08-12T03:14:50.855Z,15.30
2022-08-12T03:17:23.302Z,15.30
2022-08-12T03:20:08.803Z,15.30
2022-08-12T03:22:40.838Z,15.20
2022-08-12T03:25:13.422Z,15.20
2022-08-12T03:27:55.899Z,15.20
2022-08-12T03:30:24.693Z,15.20
2022-08-12T03:32:53.243Z,15.10
2022-08-12T03:35:41.287Z,15.10
2022-08-12T03:38:12.314Z,15.10
2022-08-12T03:41:04.528Z,15.10
2022-08-12T03:43:52.282Z,15.10
2022-08-12T03:46:41.252Z,15.10
2022-08-12T03:49:26.941Z,15.00
2022-08-12T03:52:14.560Z,15.00
2022-08-12T03:55:00.223Z,15.00
2022-08-12T03:57:46.089Z,15.00
2022-08-12T04:00:24.866Z,15.00
2022-08-12T04:03:01.632Z,15.00
2022-08-12T04:05:54.419Z,15.00
2022-08-12T04:08:19.550Z,15.00
2022-08-12T04:11:04.977Z,15.00
2022-08-12T04:13:33.450Z,15.00
2022-08-12T04:16:02.744Z,15.00
2022-08-12T04:18:31.006Z,15.00
2022-08-12T04:20:59.103Z,15.00
2022-08-12T04:23:28.782Z,15.00
2022-08-12T04:25:56.840Z,15.00
2022-08-12T04:28:27.619Z,15.00
2022-08-12T04:30:58.178Z,15.00
2022-08-12T04:33:27.069Z,15.00
2022-08-12T04:35:55.225Z,15.10
2022-08-12T04:38:23.250Z,15.00
2022-08-12T04:40:53.780Z,15.10
2022-08-12T04:43:59.769Z,15.10
2022-08-12T04:46:09.885Z,15.20
2022-08-12T04:48:37.919Z,15.20
2022-08-12T04:51:06.321Z,15.30
2022-08-12T04:53:34.504Z,15.40
2022-08-12T04:56:04.524Z,15.50
2022-08-12T04:58:32.714Z,15.50
2022-08-12T05:01:01.163Z,15.60
2022-08-12T05:03:29.277Z,15.70
2022-08-12T05:06:26.434Z,15.80
2022-08-12T05:08:55.774Z,16.00
2022-08-12T05:11:25.882Z,16.10
2022-08-12T05:13:57.020Z,16.20
2022-08-12T05:16:29.986Z,16.30
2022-08-12T05:19:00.979Z,16.40
2022-08-12T05:21:29.166Z,16.50
2022-08-12T05:23:57.183Z,16.60
2022-08-12T05:26:27.119Z,16.80
2022-08-12T05:28:55.169Z,17.00
2022-08-12T05:31:42.603Z,17.10
2022-08-12T05:34:14.648Z,17.30
2022-08-12T05:36:43.864Z,17.50
2022-08-12T05:39:12.032Z,17.60
2022-08-12T05:41:41.631Z,17.80
2022-08-12T05:44:10.728Z,18.00
2022-08-12T05:46:38.831Z,18.10
2022-08-12T05:49:07.356Z,18.40
2022-08-12T05:51:40.430Z,18.50
2022-08-12T05:54:09.080Z,18.80
2022-08-12T05:56:37.594Z,19.10
2022-08-12T05:59:08.690Z,19.30
2022-08-12T06:02:12.548Z,19.50
2022-08-12T06:04:24.814Z,19.80
2022-08-12T06:06:53.649Z,19.90
2022-08-12T06:09:22.715Z,20.10
2022-08-12T06:12:04.823Z,20.50
2022-08-12T06:14:38.998Z,20.70
2022-08-12T06:17:08.533Z,21.10
2022-08-12T06:20:26.069Z,21.20
2022-08-12T06:22:26.016Z,21.50
2022-08-12T06:24:54.064Z,21.80
2022-08-12T06:27:22.117Z,22.00
2022-08-12T06:30:08.232Z,22.40
2022-08-12T06:32:51.875Z,22.70
2022-08-12T06:35:49.429Z,23.00
2022-08-12T06:38:17.134Z,23.40
2022-08-12T06:41:02.792Z,23.80
2022-08-12T06:43:31.045Z,24.10
2022-08-12T06:46:22.107Z,24.50
2022-08-12T06:48:52.132Z,24.80
2022-08-12T06:51:20.821Z,25.20
2022-08-12T06:53:48.848Z,25.40
2022-08-12T06:56:17.503Z,25.70
2022-08-12T06:58:45.536Z,26.00
2022-08-12T07:01:13.663Z,26.30
2022-08-12T07:03:43.186Z,26.50
2022-08-12T07:06:11.663Z,26.80
2022-08-12T07:08:39.806Z,27.00
2022-08-12T07:11:09.490Z,27.20
2022-08-12T07:14:02.540Z,27.40
2022-08-12T07:16:52.249Z,27.70
2022-08-12T07:19:21.679Z,28.00
2022-08-12T07:22:00.072Z,28.20
2022-08-12T07:24:30.850Z,28.30
2022-08-12T07:26:59.103Z,28.60
2022-08-12T07:29:57.812Z,28.90
2022-08-12T07:32:16.579Z,29.10
2022-08-12T07:34:47.437Z,28.90
2022-08-12T07:37:17.834Z,29.10
2022-08-12T07:39:50.098Z,29.60
2022-08-12T07:42:26.950Z,29.50
2022-08-12T07:44:55.026Z,29.90
2022-08-12T07:47:23.169Z,30.10
2022-08-12T07:50:05.461Z,30.40
2022-08-12T07:52:34.779Z,30.70
2022-08-12T07:55:03.067Z,30.80
2022-08-12T07:57:32.608Z,31.20
2022-08-12T08:00:04.944Z,31.40
2022-08-12T08:02:36.411Z,31.70
2022-08-12T08:05:06.796Z,31.90
2022-08-12T08:07:34.846Z,31.90
2022-08-12T08:10:05.023Z,32.20
2022-08-12T08:12:50.417Z,32.30
2022-08-12T08:15:20.268Z,32.40
2022-08-12T08:18:02.866Z,32.70
2022-08-12T08:20:33.975Z,32.90
2022-08-12T08:23:04.101Z,33.10
2022-08-12T08:25:35.961Z,33.40
2022-08-12T08:28:06.889Z,33.60
2022-08-12T08:30:35.134Z,33.70
2022-08-12T08:33:03.154Z,33.60
2022-08-12T08:35:48.482Z,33.90
2022-08-12T08:38:24.503Z,34.00
2022-08-12T08:42:17.444Z,34.20
2022-08-12T08:44:06.863Z,34.30
2022-08-12T08:46:38.102Z,34.40
2022-08-12T08:49:06.573Z,34.50
2022-08-12T08:51:36.644Z,34.70
2022-08-12T08:54:04.964Z,34.60
2022-08-12T08:56:33.183Z,34.20
2022-08-12T08:59:01.248Z,34.40
2022-08-12T09:01:37.777Z,34.70
2022-08-12T09:05:09.841Z,34.90
2022-08-12T09:06:56.710Z,34.80
2022-08-12T09:09:24.992Z,34.90
2022-08-12T09:15:19.062Z,35.40
2022-08-12T09:17:57.048Z,35.50
2022-08-12T09:20:29.335Z,35.40
2022-08-12T09:22:59.076Z,35.50
2022-08-12T09:25:27.947Z,35.60
2022-08-12T09:28:05.048Z,35.90
2022-08-12T09:30:42.262Z,36.10
2022-08-12T09:33:14.705Z,35.70
2022-08-12T09:36:04.266Z,35.60
2022-08-12T09:38:35.323Z,35.40
2022-08-12T09:42:33.081Z,35.50
2022-08-12T09:44:39.291Z,36.00
2022-08-12T09:46:57.393Z,36.20
2022-08-12T09:49:25.721Z,36.20
2022-08-12T09:51:55.567Z,36.30
2022-08-12T09:54:34.168Z,36.10
2022-08-12T09:58:08.232Z,36.10
2022-08-12T10:00:12.975Z,35.10
2022-08-12T10:03:32.118Z,34.90
2022-08-12T10:06:19.428Z,35.20
2022-08-12T10:08:52.368Z,35.70
2022-08-12T10:12:10.890Z,36.00
2022-08-12T10:14:34.627Z,36.40
2022-08-12T10:17:09.050Z,36.40
2022-08-12T10:19:37.898Z,36.60
2022-08-12T10:22:17.185Z,36.80
2022-08-12T10:25:17.900Z,36.80
2022-08-12T10:28:10.702Z,37.00
2022-08-12T10:30:58.422Z,36.20
2022-08-12T10:33:31.478Z,36.60
2022-08-12T10:36:00.493Z,36.50
2022-08-12T10:38:37.334Z,36.60
2022-08-12T10:41:56.888Z,36.70
2022-08-12T10:44:17.059Z,36.90
2022-08-12T10:46:46.015Z,37.20
2022-08-12T10:50:02.570Z,37.00
2022-08-12T10:52:32.970Z,37.00
2022-08-12T10:54:56.116Z,37.20
2022-08-12T10:58:15.094Z,37.30
2022-08-12T11:00:31.815Z,37.30
2022-08-12T11:04:31.874Z,36.90
2022-08-12T11:07:08.266Z,36.50
2022-08-12T11:08:43.726Z,36.60
2022-08-12T11:12:07.878Z,36.60
2022-08-12T11:14:48.322Z,37.10
2022-08-12T11:17:34.050Z,37.20
2022-08-12T11:19:45.753Z,36.80
2022-08-12T11:22:14.272Z,37.10
2022-08-12T11:24:42.587Z,37.30
2022-08-12T11:27:19.805Z,37.10
2022-08-12T11:30:01.761Z,36.50
2022-08-12T11:32:38.907Z,37.10
2022-08-12T11:35:08.488Z,37.40
2022-08-12T11:37:59.443Z,37.50
2022-08-12T11:40:26.675Z,37.60
2022-08-12T11:43:11.923Z,37.50
2022-08-12T11:45:46.842Z,37.40
2022-08-12T11:48:16.767Z,37.70
2022-08-12T11:50:46.807Z,37.90
2022-08-12T11:53:58.404Z,38.00
2022-08-12T11:56:04.533Z,37.70
2022-08-12T12:00:11.718Z,37.50
2022-08-12T12:02:02.689Z,37.20
2022-08-12T12:04:10.357Z,36.60
2022-08-12T12:06:38.487Z,36.10
2022-08-12T12:09:08.057Z,36.20
2022-08-12T12:11:49.077Z,36.70
2022-08-12T12:14:17.821Z,37.10
2022-08-12T12:16:48.209Z,37.20
2022-08-12T12:19:19.503Z,36.90
2022-08-12T12:21:49.533Z,37.20
2022-08-12T12:24:22.078Z,36.90
2022-08-12T12:27:00.065Z,36.30
2022-08-12T12:30:13.943Z,36.50
2022-08-12T12:32:18.541Z,36.70
2022-08-12T12:35:14.516Z,36.70
2022-08-12T12:38:03.643Z,36.50
2022-08-12T12:40:29.875Z,36.50
2022-08-12T12:43:01.839Z,36.10
2022-08-12T12:45:34.266Z,35.60
2022-08-12T12:48:04.594Z,35.20
2022-08-12T12:50:42.775Z,35.00
2022-08-12T12:54:07.522Z,35.00
2022-08-12T12:56:04.045Z,34.70
2022-08-12T12:58:32.182Z,34.30
2022-08-12T13:01:04.628Z,34.50
2022-08-12T13:03:49.381Z,34.60
2022-08-12T13:06:19.167Z,34.60
2022-08-12T13:08:49.271Z,34.50
2022-08-12T13:11:18.643Z,34.70
2022-08-12T13:14:09.984Z,34.30
2022-08-12T13:16:44.048Z,34.00
2022-08-12T13:19:12.662Z,33.60
2022-08-12T13:21:58.567Z,34.00
2022-08-12T13:24:26.773Z,33.70
2022-08-12T13:26:59.805Z,33.60
2022-08-12T13:29:33.559Z,33.90
2022-08-12T13:32:19.651Z,33.50
2022-08-12T13:34:52.830Z,33.80
2022-08-12T13:37:43.779Z,34.00
2022-08-12T13:40:21.303Z,33.50
2022-08-12T13:42:57.457Z,33.40
2022-08-12T13:45:25.590Z,33.60
2022-08-12T13:47:57.731Z,33.40
2022-08-12T13:50:29.291Z,33.60
2022-08-12T13:52:59.594Z,33.70
2022-08-12T13:55:31.072Z,33.80
2022-08-12T13:57:59.880Z,33.80
2022-08-12T14:00:33.930Z,33.90
2022-08-12T14:03:06.601Z,33.60
2022-08-12T14:05:39.063Z,33.40
2022-08-12T14:08:09.404Z,33.40
2022-08-12T14:10:38.913Z,33.20
2022-08-12T14:14:03.691Z,32.90
2022-08-12T14:16:11.032Z,32.80
2022-08-12T14:18:47.410Z,33.00
2022-08-12T14:21:18.151Z,33.20
2022-08-12T14:24:05.624Z,33.40
2022-08-12T14:26:36.362Z,33.40
2022-08-12T14:29:07.147Z,33.20
2022-08-12T14:31:40.831Z,33.10
2022-08-12T14:34:11.445Z,33.10
2022-08-12T14:36:40.662Z,33.10
2022-08-12T14:39:11.843Z,33.40
2022-08-12T14:41:48.694Z,33.30
2022-08-12T14:44:57.652Z,33.30
2022-08-12T14:47:13.607Z,33.10
2022-08-12T14:50:34.110Z,32.90
2022-08-12T14:53:41.261Z,33.00
2022-08-12T14:58:10.022Z,32.80
2022-08-12T15:00:56.301Z,32.70
2022-08-12T15:03:52.052Z,32.60
2022-08-12T15:06:39.279Z,32.50
2022-08-12T15:09:07.704Z,32.50
2022-08-12T15:11:55.170Z,32.20
2022-08-12T15:14:25.589Z,32.20
2022-08-12T15:16:54.199Z,32.00
2022-08-12T15:20:30.752Z,32.10
2022-08-12T15:22:36.864Z,32.30
2022-08-12T15:24:58.494Z,32.10
2022-08-12T15:28:11.025Z,32.10
2022-08-12T15:30:17.615Z,32.10
2022-08-12T15:32:51.337Z,32.00
2022-08-12T15:35:19.502Z,31.70
2022-08-12T15:38:08.987Z,31.90
2022-08-12T15:40:46.602Z,31.70
2022-08-12T15:43:35.391Z,32.00
2022-08-12T15:46:06.579Z,32.40
2022-08-12T15:48:34.692Z,32.80
2022-08-12T15:51:03.835Z,33.00
2022-08-12T15:53:54.645Z,33.10
2022-08-12T15:56:29.271Z,33.30
2022-08-12T15:58:59.439Z,33.30
2022-08-12T16:01:35.549Z,33.40
2022-08-12T16:04:05.429Z,33.10
2022-08-12T16:07:00.487Z,32.80
2022-08-12T16:09:31.787Z,32.80
2022-08-12T16:12:12.462Z,32.70
2022-08-12T16:14:44.232Z,32.40
2022-08-12T16:17:15.929Z,32.20
2022-08-12T16:20:03.978Z,32.20
2022-08-12T16:22:32.054Z,32.30
2022-08-12T16:25:01.104Z,32.40
2022-08-12T16:27:38.654Z,32.10
2022-08-12T16:30:09.763Z,31.90
2022-08-12T16:32:38.159Z,31.70
2022-08-12T16:35:08.133Z,31.50
2022-08-12T16:38:25.709Z,31.40
2022-08-12T16:40:32.550Z,31.20
2022-08-12T16:43:04.903Z,31.10
2022-08-12T16:46:08.007Z,31.00
2022-08-12T16:48:33.852Z,30.90
2022-08-12T16:51:04.271Z,30.80
2022-08-12T16:53:45.222Z,30.60
2022-08-12T16:56:15.896Z,30.50
2022-08-12T16:58:47.158Z,30.40
2022-08-12T17:01:16.812Z,30.30
2022-08-12T17:04:09.142Z,30.10
2022-08-12T17:06:41.619Z,29.90
2022-08-12T17:09:17.172Z,29.90
2022-08-12T17:11:49.077Z,29.70
2022-08-12T17:14:22.918Z,29.60
2022-08-12T17:16:55.143Z,29.40
2022-08-12T17:20:29.042Z,29.10
2022-08-12T17:22:15.506Z,29.00
2022-08-12T17:24:54.720Z,28.90
2022-08-12T17:27:23.907Z,28.80
2022-08-12T17:30:02.546Z,28.80
2022-08-12T17:32:37.106Z,28.80
2022-08-12T17:35:29.964Z,28.70
2022-08-12T17:38:06.816Z,28.70
2022-08-12T17:40:37.026Z,28.60
2022-08-12T17:43:57.527Z,28.50
2022-08-12T17:45:59.006Z,28.40
2022-08-12T17:48:34.974Z,28.30
2022-08-12T17:51:15.147Z,28.20
2022-08-12T17:54:10.878Z,28.10
2022-08-12T17:56:36.921Z,28.00
2022-08-12T17:59:07.628Z,27.90
2022-08-12T18:01:36.006Z,27.80
2022-08-12T18:04:21.922Z,27.60
2022-08-12T18:06:55.711Z,27.40
2022-08-12T18:09:32.082Z,27.30
2022-08-12T18:12:24.313Z,27.10
2022-08-12T18:14:56.576Z,27.00
2022-08-12T18:17:26.890Z,26.80
2022-08-12T18:20:06.995Z,26.80
2022-08-12T18:22:38.682Z,26.60
2022-08-12T18:26:09.843Z,26.50
2022-08-12T18:28:15.177Z,26.30
2022-08-12T18:30:53.524Z,26.10
2022-08-12T18:33:25.584Z,26.00
2022-08-12T18:35:56.990Z,25.80
2022-08-12T18:38:26.259Z,25.70
2022-08-12T18:41:21.140Z,25.60
2022-08-12T18:43:58.553Z,25.40
2022-08-12T18:46:31.995Z,25.30
2022-08-12T18:49:17.761Z,25.20
2022-08-12T18:51:55.455Z,25.00
2022-08-12T18:54:32.272Z,24.90
2022-08-12T18:57:03.872Z,24.80
2022-08-12T19:00:02.370Z,24.70
2022-08-12T19:02:23.121Z,24.50
2022-08-12T19:04:53.337Z,24.10
2022-08-12T19:07:24.922Z,24.10
2022-08-12T19:09:59.970Z,24.20
2022-08-12T19:12:57.280Z,24.30
2022-08-12T19:15:26.590Z,24.30
2022-08-12T19:18:00.778Z,24.30
2022-08-12T19:20:31.835Z,24.30
2022-08-12T19:23:07.316Z,24.30
2022-08-12T19:26:01.061Z,24.30
2022-08-12T19:28:29.858Z,24.20
2022-08-12T19:31:56.005Z,24.20
2022-08-12T19:34:37.665Z,24.10
2022-08-12T19:37:10.886Z,24.10
2022-08-12T19:40:09.258Z,24.10
2022-08-12T19:42:28.960Z,24.10
2022-08-12T19:44:59.680Z,24.10
2022-08-12T19:47:28.714Z,24.00
2022-08-12T19:50:11.465Z,23.90
2022-08-12T19:52:40.832Z,23.90
2022-08-12T19:55:19.854Z,23.90
2022-08-12T19:58:01.767Z,23.90
2022-08-12T20:00:34.565Z,23.80
2022-08-12T20:03:04.439Z,23.80
2022-08-12T20:06:06.997Z,23.70
2022-08-12T20:08:34.247Z,23.70
2022-08-12T20:12:11.454Z,23.60
2022-08-12T20:14:00.206Z,23.50
2022-08-12T20:19:52.299Z,23.50
2022-08-12T20:22:15.079Z,23.40
2022-08-12T20:24:55.240Z,23.30
2022-08-12T20:28:05.260Z,23.30
2022-08-12T20:30:17.046Z,23.20
2022-08-12T20:32:53.991Z,23.10
2022-08-12T20:35:24.546Z,23.10
2022-08-12T20:38:06.641Z,23.00
2022-08-12T20:40:42.292Z,23.00
2022-08-12T20:43:24.036Z,22.90
2022-08-12T20:45:58.049Z,22.90
2022-08-12T20:48:29.526Z,22.80
2022-08-12T20:50:58.154Z,22.80
2022-08-12T20:53:57.719Z,22.70
2022-08-12T20:56:30.551Z,22.70
2022-08-12T20:59:02.042Z,22.60
2022-08-12T21:01:47.203Z,22.60
2022-08-12T21:04:33.914Z,22.50
2022-08-12T21:07:04.532Z,22.50
2022-08-12T21:09:40.719Z,22.40
2022-08-12T21:12:31.379Z,22.40
2022-08-12T21:15:22.908Z,22.40
2022-08-12T21:18:00.572Z,22.40
2022-08-12T21:20:37.735Z,22.30
2022-08-12T21:23:06.463Z,22.20
2022-08-12T21:25:44.257Z,22.20
2022-08-12T21:28:13.043Z,22.10
2022-08-12T21:31:10.836Z,22.00
2022-08-12T21:33:31.915Z,21.90
2022-08-12T21:36:01.035Z,21.90
2022-08-12T21:38:34.932Z,21.90
2022-08-12T21:41:07.063Z,21.80
2022-08-12T21:43:43.633Z,21.80
2022-08-12T21:46:35.225Z,21.80
2022-08-12T21:49:05.496Z,21.80
2022-08-12T21:51:48.834Z,21.70
2022-08-12T21:54:22.073Z,21.70
2022-08-12T21:56:53.534Z,21.60
2022-08-12T21:59:22.847Z,21.60
2022-08-12T22:01:53.634Z,21.50
2022-08-12T22:04:39.924Z,21.50
2022-08-12T22:07:08.463Z,21.50
2022-08-12T22:09:42.576Z,21.40
2022-08-12T22:12:29.260Z,21.50
2022-08-12T22:14:57.435Z,21.30
2022-08-12T22:17:50.266Z,21.30
2022-08-12T22:20:22.268Z,21.30
2022-08-12T22:22:53.831Z,21.30
2022-08-12T22:25:27.898Z,21.30
2022-08-12T22:28:13.533Z,21.30
2022-08-12T22:30:59.501Z,21.30
2022-08-12T22:33:28.890Z,21.20
2022-08-12T22:36:00.061Z,21.20
2022-08-12T22:38:29.806Z,21.20
2022-08-12T22:41:00.769Z,21.20
2022-08-12T22:44:01.075Z,21.20
2022-08-12T22:46:53.697Z,21.20
2022-08-12T22:49:37.192Z,21.10
2022-08-12T22:52:13.461Z,21.10
2022-08-12T22:54:59.917Z,21.10
2022-08-12T22:57:54.386Z,21.00
2022-08-12T23:00:26.994Z,21.00
2022-08-12T23:03:00.763Z,21.00
2022-08-12T23:05:56.686Z,21.00
2022-08-12T23:08:22.345Z,20.90
2022-08-12T23:10:50.505Z,20.90
2022-08-12T23:13:42.916Z,20.80
2022-08-12T23:16:27.777Z,20.80
2022-08-12T23:18:59.683Z,20.70
2022-08-12T23:22:04.124Z,20.70
2022-08-12T23:24:17.224Z,20.70
2022-08-12T23:27:03.924Z,20.60
2022-08-12T23:29:43.133Z,20.60
2022-08-12T23:32:13.482Z,20.60
2022-08-12T23:35:03.629Z,20.50
2022-08-12T23:37:46.522Z,20.60
2022-08-12T23:40:18.242Z,20.50
2022-08-12T23:42:49.251Z,20.40
2022-08-12T23:45:20.132Z,20.40
2022-08-12T23:47:58.603Z,20.50
2022-08-12T23:50:34.139Z,20.50
2022-08-12T23:53:06.438Z,20.40
2022-08-12T23:55:45.749Z,20.30
2022-08-12T23:58:22.408Z,20.30
